createdAt,value
2023-10-28T00:02:24.686Z,2.90
2023-10-28T00:04:52.476Z,4.90
2023-10-28T00:07:19.222Z,5.68
2023-10-28T00:09:45.902Z,2.03
2023-10-28T00:12:14.756Z,4.40
2023-10-28T00:14:41.923Z,4.18
2023-10-28T00:17:08.850Z,4.47
2023-10-28T00:19:35.463Z,3.97
2023-10-28T00:22:02.018Z,1.30
2023-10-28T00:24:28.618Z,2.67
2023-10-28T00:26:55.149Z,3.92
2023-10-28T00:29:21.663Z,7.38
2023-10-28T00:31:48.690Z,2.80
2023-10-28T00:34:16.369Z,2.75
2023-10-28T00:36:42.979Z,2.80
2023-10-28T00:39:12.196Z,2.63
2023-10-28T00:41:38.783Z,1.88
2023-10-28T00:44:06.205Z,1.65
2023-10-28T00:46:32.772Z,3.20
2023-10-28T00:48:59.293Z,7.03
2023-10-28T00:51:25.775Z,1.92
2023-10-28T00:53:52.662Z,2.10
2023-10-28T00:56:20.206Z,7.72
2023-10-28T00:58:47.704Z,4.90
2023-10-28T01:01:15.425Z,2.90
2023-10-28T01:03:42.360Z,2.65
2023-10-28T01:06:11.757Z,2.67
2023-10-28T01:08:38.326Z,6.63
2023-10-28T01:11:05.113Z,1.92
2023-10-28T01:13:31.626Z,1.88
2023-10-28T01:16:00.831Z,2.22
2023-10-28T01:18:27.628Z,17.80
2023-10-28T01:20:54.183Z,1.15
2023-10-28T01:23:21.010Z,3.00
2023-10-28T01:25:47.596Z,4.00
2023-10-28T01:28:14.153Z,2.38
2023-10-28T01:30:40.708Z,2.20
2023-10-28T01:33:07.307Z,1.38
2023-10-28T01:35:33.956Z,4.45
2023-10-28T01:38:00.535Z,4.47
2023-10-28T01:40:27.476Z,2.60
2023-10-28T01:42:54.007Z,2.92
2023-10-28T01:45:22.641Z,2.40
2023-10-28T01:47:49.383Z,2.65
2023-10-28T01:50:18.091Z,1.85
2023-10-28T01:52:45.880Z,5.00
2023-10-28T01:55:13.159Z,3.28
2023-10-28T01:57:40.254Z,3.58
2023-10-28T02:00:14.319Z,4.47
2023-10-28T02:02:41.492Z,3.53
2023-10-28T02:05:09.536Z,2.92
2023-10-28T02:07:36.692Z,9.13
2023-10-28T02:10:03.566Z,2.38
2023-10-28T02:12:30.007Z,11.00
2023-10-28T02:14:57.013Z,3.90
2023-10-28T02:17:23.576Z,3.28
2023-10-28T02:19:50.116Z,3.30
2023-10-28T02:22:16.562Z,6.00
2023-10-28T02:24:44.581Z,3.80
2023-10-28T02:27:11.965Z,3.90
2023-10-28T02:29:38.745Z,5.68
2023-10-28T02:32:06.468Z,4.15
2023-10-28T02:34:32.948Z,5.95
2023-10-28T02:36:59.808Z,6.93
2023-10-28T02:39:27.887Z,8.07
2023-10-28T02:41:54.957Z,4.97
2023-10-28T02:44:21.466Z,8.85
2023-10-28T02:46:48.016Z,5.57
2023-10-28T02:49:14.512Z,10.05
2023-10-28T02:51:41.085Z,6.93
2023-10-28T02:54:07.699Z,9.82
2023-10-28T02:56:34.127Z,11.55
2023-10-28T02:59:00.619Z,9.95
2023-10-28T03:01:27.165Z,12.77
2023-10-28T03:03:54.022Z,10.82
2023-10-28T03:06:20.519Z,7.90
2023-10-28T03:08:46.969Z,11.40
2023-10-28T03:11:13.784Z,11.32
2023-10-28T03:13:40.364Z,8.43
2023-10-28T03:16:07.301Z,8.45
2023-10-28T03:18:33.844Z,7.85
2023-10-28T03:21:00.358Z,10.52
2023-10-28T03:23:26.884Z,8.55
2023-10-28T03:25:53.471Z,15.20
2023-10-28T03:28:20.050Z,13.52
2023-10-28T03:30:46.522Z,8.93
2023-10-28T03:33:13.066Z,9.10
2023-10-28T03:35:39.514Z,12.38
2023-10-28T03:38:06.282Z,10.50
2023-10-28T03:40:32.805Z,10.40
2023-10-28T03:42:59.327Z,8.55
2023-10-28T03:45:25.846Z,9.88
2023-10-28T03:47:52.388Z,13.80
2023-10-28T03:50:18.996Z,9.23
2023-10-28T03:52:45.538Z,9.30
2023-10-28T03:55:12.141Z,9.27
2023-10-28T03:57:38.668Z,10.48
2023-10-28T04:00:07.808Z,9.88
2023-10-28T04:02:34.282Z,10.88
2023-10-28T04:05:00.908Z,10.88
2023-10-28T04:07:27.520Z,12.10
2023-10-28T04:09:54.118Z,8.75
2023-10-28T04:12:20.869Z,12.27
2023-10-28T04:14:47.408Z,10.55
2023-10-28T04:17:13.977Z,14.85
2023-10-28T04:19:40.499Z,11.00
2023-10-28T04:22:07.619Z,11.98
2023-10-28T04:24:34.262Z,10.57
2023-10-28T04:27:00.819Z,9.55
2023-10-28T04:29:27.301Z,12.00
2023-10-28T04:31:53.952Z,12.35
2023-10-28T04:34:21.055Z,14.65
2023-10-28T04:36:47.523Z,9.02
2023-10-28T04:39:14.013Z,12.13
2023-10-28T04:41:40.495Z,9.45
2023-10-28T04:44:07.027Z,9.30
2023-10-28T04:46:33.619Z,10.68
2023-10-28T04:49:00.311Z,10.60
2023-10-28T04:51:26.860Z,13.25
2023-10-28T04:53:53.385Z,10.65
2023-10-28T04:56:19.925Z,14.18
2023-10-28T04:58:46.731Z,10.25
2023-10-28T05:01:13.342Z,9.82
2023-10-28T05:03:40.224Z,10.15
2023-10-28T05:06:09.725Z,10.30
2023-10-28T05:08:36.657Z,10.05
2023-10-28T05:11:03.219Z,9.57
2023-10-28T05:21:42.536Z,9.77
2023-10-28T05:24:09.079Z,10.43
2023-10-28T05:26:35.611Z,12.35
2023-10-28T05:29:02.101Z,14.30
2023-10-28T05:31:28.714Z,9.95
2023-10-28T05:33:55.896Z,8.25
2023-10-28T05:36:22.592Z,11.93
2023-10-28T05:38:49.126Z,10.15
2023-10-28T05:41:15.654Z,11.48
2023-10-28T05:43:42.167Z,11.20
2023-10-28T05:46:08.675Z,15.20
2023-10-28T05:48:35.178Z,11.32
2023-10-28T05:51:03.826Z,12.07
2023-10-28T05:53:31.070Z,11.38
2023-10-28T05:55:58.106Z,15.38
2023-10-28T05:58:24.935Z,12.35
2023-10-28T06:00:51.441Z,17.40
2023-10-28T06:03:17.946Z,12.32
2023-10-28T06:05:44.419Z,13.50
2023-10-28T06:08:12.780Z,14.93
2023-10-28T06:10:39.461Z,13.32
2023-10-28T06:13:05.908Z,16.05
2023-10-28T06:15:32.464Z,11.13
2023-10-28T06:17:58.995Z,17.27
2023-10-28T06:20:25.985Z,12.32
2023-10-28T06:22:53.465Z,11.93
2023-10-28T06:25:19.970Z,11.85
2023-10-28T06:27:46.559Z,8.88
2023-10-28T06:30:13.140Z,12.35
2023-10-28T06:32:42.330Z,14.65
2023-10-28T06:35:08.959Z,11.75
2023-10-28T06:37:35.439Z,12.05
2023-10-28T06:40:01.875Z,12.95
2023-10-28T06:42:28.316Z,16.10
2023-10-28T06:44:54.760Z,15.05
2023-10-28T06:47:21.591Z,13.70
2023-10-28T06:49:48.399Z,11.52
2023-10-28T06:52:15.513Z,15.23
2023-10-28T06:54:41.966Z,7.72
2023-10-28T06:57:08.541Z,9.55
2023-10-28T06:59:36.049Z,11.65
2023-10-28T07:02:02.696Z,7.40
2023-10-28T07:04:29.221Z,14.15
2023-10-28T07:06:55.731Z,10.10
2023-10-28T07:09:22.253Z,13.60
2023-10-28T07:11:48.911Z,15.25
2023-10-28T07:14:15.491Z,15.05
2023-10-28T07:16:42.554Z,15.73
2023-10-28T07:19:10.919Z,16.48
2023-10-28T07:21:37.659Z,11.95
2023-10-28T07:24:05.884Z,20.48
2023-10-28T07:26:32.407Z,24.83
2023-10-28T07:28:58.909Z,13.85
2023-10-28T07:31:25.623Z,11.82
2023-10-28T07:33:52.162Z,11.43
2023-10-28T07:38:45.166Z,11.45
2023-10-28T07:41:11.767Z,13.02
2023-10-28T07:43:38.487Z,10.23
2023-10-28T07:46:05.857Z,10.18
2023-10-28T07:48:32.418Z,6.22
2023-10-28T07:50:59.057Z,5.88
2023-10-28T07:53:25.685Z,8.70
2023-10-28T07:55:52.260Z,6.15
2023-10-28T07:58:18.763Z,13.70
2023-10-28T08:00:45.568Z,4.68
2023-10-28T08:03:12.147Z,6.60
2023-10-28T08:05:38.719Z,6.55
2023-10-28T08:08:05.229Z,6.95
2023-10-28T08:10:34.150Z,5.88
2023-10-28T08:13:02.100Z,5.47
2023-10-28T08:15:30.315Z,4.25
2023-10-28T08:17:57.384Z,7.18
2023-10-28T08:20:24.516Z,7.78
2023-10-28T08:22:51.260Z,5.47
2023-10-28T08:25:17.997Z,4.20
2023-10-28T08:27:45.804Z,4.40
2023-10-28T08:30:21.259Z,6.05
2023-10-28T08:32:47.949Z,5.47
2023-10-28T08:35:15.106Z,5.28
2023-10-28T08:37:41.904Z,5.90
2023-10-28T08:40:12.290Z,4.85
2023-10-28T08:42:39.499Z,4.22
2023-10-28T08:45:06.778Z,6.05
2023-10-28T08:47:33.530Z,7.15
2023-10-28T08:50:01.982Z,4.18
2023-10-28T08:52:30.902Z,6.10
2023-10-28T08:54:59.032Z,3.70
2023-10-28T08:57:25.956Z,3.67
2023-10-28T08:59:53.278Z,3.28
2023-10-28T09:02:21.299Z,5.38
2023-10-28T09:04:47.881Z,2.83
2023-10-28T09:07:15.967Z,3.22
2023-10-28T09:09:46.246Z,7.68
2023-10-28T09:12:13.084Z,3.25
2023-10-28T09:14:40.139Z,3.90
2023-10-28T09:17:06.734Z,3.63
2023-10-28T09:19:33.304Z,3.85
2023-10-28T09:21:59.972Z,2.33
2023-10-28T09:24:26.477Z,2.75
2023-10-28T09:26:53.019Z,3.40
2023-10-28T09:29:26.783Z,5.15
2023-10-28T09:31:53.756Z,2.97
2023-10-28T09:34:20.618Z,4.53
2023-10-28T09:36:47.457Z,2.85
2023-10-28T09:39:14.916Z,3.78
2023-10-28T09:41:42.073Z,3.67
2023-10-28T09:44:08.820Z,2.95
2023-10-28T09:46:37.105Z,3.90
2023-10-28T09:49:06.012Z,2.80
2023-10-28T09:51:34.636Z,1.38
2023-10-28T09:54:06.589Z,0.90
2023-10-28T09:56:36.166Z,1.65
2023-10-28T09:59:14.623Z,2.55
2023-10-28T10:01:44.390Z,2.05
2023-10-28T10:04:26.040Z,1.20
2023-10-28T10:06:52.821Z,1.85
2023-10-28T10:09:19.743Z,6.93
2023-10-28T10:11:47.006Z,2.78
2023-10-28T10:14:14.161Z,2.78
2023-10-28T10:16:50.412Z,5.80
2023-10-28T10:19:21.807Z,3.97
2023-10-28T10:21:54.922Z,1.88
2023-10-28T10:24:21.899Z,2.05
2023-10-28T10:26:56.169Z,2.00
2023-10-28T10:29:23.057Z,3.10
2023-10-28T10:31:52.724Z,2.95
2023-10-28T10:34:32.730Z,1.23
2023-10-28T10:36:59.262Z,4.30
2023-10-28T10:39:25.727Z,2.70
2023-10-28T10:41:58.448Z,4.22
2023-10-28T10:44:33.370Z,2.20
2023-10-28T10:47:01.198Z,4.38
2023-10-28T10:49:27.867Z,1.95
2023-10-28T10:51:54.477Z,1.25
2023-10-28T10:54:20.971Z,1.30
2023-10-28T10:56:47.782Z,1.83
2023-10-28T10:59:14.282Z,3.42
2023-10-28T11:01:40.934Z,2.13
2023-10-28T11:04:07.908Z,2.35
2023-10-28T11:06:37.387Z,3.47
2023-10-28T11:09:04.934Z,3.72
2023-10-28T11:11:31.477Z,4.72
2023-10-28T11:13:58.131Z,2.05
2023-10-28T11:16:28.270Z,1.80
2023-10-28T11:18:54.744Z,1.30
2023-10-28T11:21:24.774Z,5.72
2023-10-28T11:23:51.973Z,6.65
2023-10-28T11:26:20.085Z,1.92
2023-10-28T11:28:46.846Z,4.00
2023-10-28T11:31:13.576Z,1.33
2023-10-28T11:33:40.236Z,2.55
2023-10-28T11:36:07.036Z,1.98
2023-10-28T11:38:36.200Z,5.72
2023-10-28T11:41:06.453Z,0.85
2023-10-28T11:43:33.873Z,1.40
2023-10-28T11:46:00.417Z,3.92
2023-10-28T11:48:27.485Z,1.75
2023-10-28T11:50:54.768Z,3.22
2023-10-28T11:53:24.796Z,1.13
2023-10-28T11:55:51.317Z,3.95
2023-10-28T11:58:17.965Z,3.45
2023-10-28T12:00:46.051Z,0.75
2023-10-28T12:03:12.767Z,1.55
2023-10-28T12:05:42.236Z,0.65
2023-10-28T12:08:08.732Z,0.95
2023-10-28T12:10:35.600Z,2.40
2023-10-28T12:13:02.636Z,3.92
2023-10-28T12:15:29.070Z,2.15
2023-10-28T12:17:55.606Z,3.90
2023-10-28T12:20:22.244Z,2.95
2023-10-28T12:22:48.773Z,1.90
2023-10-28T12:25:15.399Z,1.98
2023-10-28T12:27:41.940Z,2.60
2023-10-28T12:30:09.478Z,1.63
2023-10-28T12:32:36.053Z,4.03
2023-10-28T12:35:02.648Z,2.90
2023-10-28T12:37:29.139Z,9.75
2023-10-28T12:39:56.451Z,1.70
2023-10-28T12:42:23.104Z,7.15
2023-10-28T12:44:49.602Z,3.78
2023-10-28T12:47:16.805Z,3.83
2023-10-28T12:49:43.405Z,1.25
2023-10-28T12:52:10.844Z,1.70
2023-10-28T12:54:37.586Z,3.53
2023-10-28T12:57:06.211Z,0.77
2023-10-28T12:59:32.850Z,2.35
2023-10-28T13:01:59.530Z,2.42
2023-10-28T13:04:26.322Z,4.63
2023-10-28T13:06:53.046Z,1.35
2023-10-28T13:09:19.775Z,2.58
2023-10-28T13:11:46.479Z,2.60
2023-10-28T13:14:14.345Z,2.50
2023-10-28T13:16:41.050Z,3.83
2023-10-28T13:19:08.196Z,4.53
2023-10-28T13:21:38.473Z,3.55
2023-10-28T13:24:05.303Z,1.02
2023-10-28T13:26:31.952Z,2.53
2023-10-28T13:28:59.427Z,3.47
2023-10-28T13:31:26.064Z,3.97
2023-10-28T13:33:52.645Z,6.68
2023-10-28T13:36:19.184Z,7.75
2023-10-28T13:38:45.882Z,2.75
2023-10-28T13:41:12.461Z,3.25
2023-10-28T13:43:41.145Z,2.33
2023-10-28T13:46:07.980Z,2.17
2023-10-28T13:48:34.500Z,2.28
2023-10-28T13:51:01.179Z,3.70
2023-10-28T13:53:27.835Z,1.42
2023-10-28T13:55:57.798Z,3.25
2023-10-28T13:58:24.260Z,4.72
2023-10-28T14:00:50.726Z,2.60
2023-10-28T14:03:18.612Z,3.70
2023-10-28T14:05:46.990Z,2.47
2023-10-28T14:08:13.527Z,4.85
2023-10-28T14:10:40.030Z,5.95
2023-10-28T14:13:06.466Z,1.80
2023-10-28T14:15:36.977Z,2.63
2023-10-28T14:18:07.752Z,2.30
2023-10-28T14:20:34.355Z,2.17
2023-10-28T14:23:00.863Z,4.75
2023-10-28T14:25:27.937Z,4.90
2023-10-28T14:27:54.436Z,5.25
2023-10-28T14:30:20.952Z,1.20
2023-10-28T14:32:48.779Z,2.40
2023-10-28T14:35:15.456Z,2.78
2023-10-28T14:37:41.984Z,2.50
2023-10-28T14:40:08.959Z,3.08
2023-10-28T14:42:38.006Z,2.83
2023-10-28T14:45:04.724Z,5.10
2023-10-28T14:47:31.287Z,3.50
2023-10-28T14:49:57.824Z,1.45
2023-10-28T14:52:24.295Z,2.67
2023-10-28T14:54:50.727Z,4.90
2023-10-28T14:57:17.210Z,2.10
2023-10-28T15:02:14.856Z,1.95
2023-10-28T15:04:41.446Z,3.20
2023-10-28T15:07:08.017Z,2.10
2023-10-28T15:09:34.447Z,1.23
2023-10-28T15:12:01.019Z,3.90
2023-10-28T15:14:27.567Z,2.60
2023-10-28T15:16:54.104Z,8.80
2023-10-28T15:19:20.911Z,3.15
2023-10-28T15:21:47.411Z,2.40
2023-10-28T15:24:15.187Z,4.82
2023-10-28T15:26:41.923Z,2.78
2023-10-28T15:29:08.613Z,2.28
2023-10-28T15:31:35.444Z,4.55
2023-10-28T15:34:03.038Z,4.80
2023-10-28T15:36:29.604Z,6.47
2023-10-28T15:38:56.241Z,1.40
2023-10-28T15:41:22.866Z,2.13
2023-10-28T15:43:50.552Z,7.88
2023-10-28T15:46:18.297Z,2.78
2023-10-28T15:48:45.696Z,6.72
2023-10-28T15:51:13.447Z,9.35
2023-10-28T15:53:41.111Z,4.70
2023-10-28T15:56:12.977Z,7.25
2023-10-28T15:58:42.632Z,2.47
2023-10-28T16:01:09.518Z,1.83
2023-10-28T16:03:37.829Z,2.80
2023-10-28T16:06:07.019Z,4.82
2023-10-28T16:08:33.476Z,6.95
2023-10-28T16:11:00.030Z,3.35
2023-10-28T16:13:26.947Z,4.18
2023-10-28T16:15:53.405Z,9.88
2023-10-28T16:18:19.943Z,7.93
2023-10-28T16:20:47.447Z,3.83
2023-10-28T16:23:15.455Z,12.23
2023-10-28T16:25:42.337Z,6.20
2023-10-28T16:28:08.961Z,11.90
2023-10-28T16:30:35.645Z,4.28
2023-10-28T16:33:02.376Z,9.55
2023-10-28T16:35:29.087Z,7.35
2023-10-28T16:37:55.738Z,5.90
2023-10-28T16:40:22.525Z,8.80
2023-10-28T16:42:55.252Z,3.80
2023-10-28T16:45:21.850Z,3.85
2023-10-28T16:47:48.496Z,12.82
2023-10-28T16:50:15.124Z,1.95
2023-10-28T16:52:42.621Z,2.63
2023-10-28T16:55:10.227Z,5.43
2023-10-28T16:57:41.166Z,6.45
2023-10-28T17:00:10.062Z,6.78
2023-10-28T17:02:36.723Z,3.85
2023-10-28T17:05:03.696Z,5.07
2023-10-28T17:07:30.371Z,1.52
2023-10-28T17:09:57.028Z,5.60
2023-10-28T17:12:23.681Z,6.25
2023-10-28T17:14:50.284Z,2.15
2023-10-28T17:17:17.223Z,5.22
2023-10-28T17:19:44.118Z,6.90
2023-10-28T17:22:10.643Z,4.13
2023-10-28T17:24:37.217Z,1.58
2023-10-28T17:27:04.069Z,8.02
2023-10-28T17:29:30.713Z,3.65
2023-10-28T17:31:58.541Z,9.98
2023-10-28T17:34:25.832Z,7.93
2023-10-28T17:36:52.817Z,8.35
2023-10-28T17:39:19.933Z,18.33
2023-10-28T17:41:50.345Z,11.73
2023-10-28T17:44:20.060Z,14.65
2023-10-28T17:46:48.307Z,7.60
2023-10-28T17:49:17.374Z,7.40
2023-10-28T17:51:44.059Z,5.78
2023-10-28T17:54:12.267Z,6.18
2023-10-28T17:56:38.946Z,3.50
2023-10-28T17:59:05.594Z,8.13
2023-10-28T18:01:32.350Z,3.13
2023-10-28T18:03:59.110Z,6.10
2023-10-28T18:06:27.561Z,3.05
2023-10-28T18:08:54.316Z,5.93
2023-10-28T18:11:21.069Z,11.32
2023-10-28T18:13:48.787Z,4.40
2023-10-28T18:16:18.207Z,8.68
2023-10-28T18:18:44.797Z,5.72
2023-10-28T18:21:12.560Z,4.72
2023-10-28T18:23:39.319Z,7.57
2023-10-28T18:26:05.898Z,8.02
2023-10-28T18:28:33.775Z,6.18
2023-10-28T18:31:01.641Z,4.97
2023-10-28T18:33:28.193Z,5.68
2023-10-28T18:35:54.845Z,6.43
2023-10-28T18:38:21.659Z,9.32
2023-10-28T18:40:48.137Z,4.25
2023-10-28T18:43:15.151Z,10.20
2023-10-28T18:45:41.690Z,9.45
2023-10-28T18:48:09.983Z,8.38
2023-10-28T18:50:37.167Z,10.90
2023-10-28T18:53:03.762Z,11.40
2023-10-28T18:55:30.696Z,10.70
2023-10-28T18:57:57.247Z,13.55
2023-10-28T19:00:23.754Z,9.98
2023-10-28T19:02:50.477Z,13.60
2023-10-28T19:05:17.510Z,9.20
2023-10-28T19:07:47.349Z,8.75
2023-10-28T19:10:13.935Z,10.20
2023-10-28T19:12:40.519Z,11.63
2023-10-28T19:15:09.328Z,5.70
2023-10-28T19:17:36.786Z,9.85
2023-10-28T19:20:03.598Z,10.50
2023-10-28T19:22:30.161Z,12.05
2023-10-28T19:24:56.622Z,12.02
2023-10-28T19:27:23.448Z,11.50
2023-10-28T19:29:51.889Z,10.07
2023-10-28T19:32:18.634Z,12.10
2023-10-28T19:34:45.172Z,6.97
2023-10-28T19:37:11.688Z,10.55
2023-10-28T19:39:38.135Z,8.63
2023-10-28T19:42:04.843Z,7.65
2023-10-28T19:44:31.407Z,10.77
2023-10-28T19:46:57.992Z,11.35
2023-10-28T19:49:24.507Z,12.40
2023-10-28T19:51:51.038Z,12.20
2023-10-28T19:54:17.770Z,10.85
2023-10-28T19:56:44.500Z,11.75
2023-10-28T19:59:11.087Z,12.90
2023-10-28T20:01:37.747Z,14.10
2023-10-28T20:04:05.863Z,11.75
2023-10-28T20:06:32.470Z,7.85
2023-10-28T20:08:58.943Z,10.02
2023-10-28T20:11:26.912Z,7.38
2023-10-28T20:13:53.454Z,8.68
2023-10-28T20:16:20.928Z,8.90
2023-10-28T20:18:47.573Z,7.20
2023-10-28T20:21:14.144Z,8.55
2023-10-28T20:23:40.961Z,7.72
2023-10-28T20:26:07.659Z,6.30
2023-10-28T20:28:35.051Z,6.70
2023-10-28T20:31:04.436Z,9.40
2023-10-28T20:33:31.851Z,9.40
2023-10-28T20:35:58.487Z,8.77
2023-10-28T20:38:25.185Z,9.95
2023-10-28T20:40:51.711Z,10.27
2023-10-28T20:43:18.892Z,9.88
2023-10-28T20:45:46.545Z,8.30
2023-10-28T20:48:13.227Z,11.52
2023-10-28T20:50:39.706Z,10.95
2023-10-28T20:53:06.342Z,6.57
2023-10-28T20:55:32.861Z,8.68
2023-10-28T20:57:59.825Z,9.27
2023-10-28T21:00:26.354Z,7.57
2023-10-28T21:02:52.937Z,9.95
2023-10-28T21:05:19.483Z,10.27
2023-10-28T21:07:45.967Z,9.43
2023-10-28T21:10:12.510Z,11.88
2023-10-28T21:12:39.645Z,9.50
2023-10-28T21:15:06.460Z,8.45
2023-10-28T21:17:33.495Z,12.65
2023-10-28T21:20:00.062Z,7.68
2023-10-28T21:22:27.061Z,6.80
2023-10-28T21:24:53.503Z,17.08
2023-10-28T21:27:20.033Z,9.80
2023-10-28T21:29:47.057Z,13.15
2023-10-28T21:32:13.567Z,7.72
2023-10-28T21:34:40.247Z,9.02
2023-10-28T21:37:06.904Z,12.88
2023-10-28T21:39:35.175Z,11.15
2023-10-28T21:42:02.117Z,9.50
2023-10-28T21:44:29.013Z,10.38
2023-10-28T21:46:55.865Z,11.48
2023-10-28T21:49:22.363Z,9.57
2023-10-28T21:51:48.835Z,12.63
2023-10-28T21:54:15.433Z,12.32
2023-10-28T21:56:41.999Z,8.57
2023-10-28T22:02:01.505Z,11.20
2023-10-28T22:04:28.079Z,13.90
2023-10-28T22:06:54.603Z,11.07
2023-10-28T22:09:21.102Z,9.57
2023-10-28T22:11:50.008Z,12.65
2023-10-28T22:14:16.643Z,14.18
2023-10-28T22:16:45.135Z,16.33
2023-10-28T22:19:11.775Z,12.55
2023-10-28T22:21:38.232Z,12.95
2023-10-28T22:24:04.907Z,11.30
2023-10-28T22:26:32.254Z,12.77
2023-10-28T22:28:58.855Z,12.65
2023-10-28T22:31:25.345Z,18.15
2023-10-28T22:33:51.896Z,14.77
2023-10-28T22:36:18.485Z,17.88
2023-10-28T22:38:44.999Z,10.68
2023-10-28T22:41:11.489Z,19.48
2023-10-28T22:43:38.772Z,7.13
2023-10-28T22:46:05.262Z,10.80
2023-10-28T22:48:31.755Z,14.02
2023-10-28T22:50:59.198Z,12.27
2023-10-28T22:53:26.696Z,12.27
2023-10-28T22:55:53.243Z,16.25
2023-10-28T22:58:19.808Z,12.60
2023-10-28T23:00:46.451Z,13.25
2023-10-28T23:03:13.662Z,15.70
2023-10-28T23:05:40.419Z,14.15
2023-10-28T23:08:07.078Z,13.88
2023-10-28T23:10:33.584Z,12.90
2023-10-28T23:13:00.606Z,15.30
2023-10-28T23:15:27.196Z,14.35
2023-10-28T23:17:53.895Z,12.52
2023-10-28T23:20:20.501Z,13.85
2023-10-28T23:22:50.149Z,15.35
2023-10-28T23:25:17.036Z,14.65
2023-10-28T23:27:43.546Z,10.75
2023-10-28T23:30:10.310Z,20.98
2023-10-28T23:32:36.889Z,10.77
2023-10-28T23:35:04.579Z,10.48
2023-10-28T23:37:34.296Z,21.13
2023-10-28T23:40:01.850Z,14.80
2023-10-28T23:42:28.471Z,10.00
2023-10-28T23:44:55.011Z,12.50
2023-10-28T23:47:21.573Z,11.45
2023-10-28T23:49:48.272Z,9.32
2023-10-28T23:52:15.256Z,11.45
2023-10-28T23:54:41.886Z,18.27
2023-10-28T23:57:08.412Z,11.85
2023-10-28T23:59:34.964Z,12.57
